Time;durP1;ratioP1;P1;durP2;ratioP2;P2;SDS_P1;SDS_P2;PMS_P1;PMS_P2;Temp;Humidity;BMP_temperature;BMP_pressure;BME280_temperature;BME280_humidity;BME280_pressure;Samples;Min_cycle;Max_cycle;Signal;HPM_P1;HPM_P2
2023/07/10 00:01:34;;;;;;;2.92;1.80;;;;;;;;;;5153003;27;20193;-90
2023/07/10 00:04:00;;;;;;;1.92;1.83;;;;;;;;;;5153372;27;20286;-87
2023/07/10 00:06:28;;;;;;;1.85;1.75;;;;;;;;;;5153291;27;20275;-90
2023/07/10 00:08:54;;;;;;;1.80;1.80;;;;;;;;;;5153354;27;20197;-88
2023/07/10 00:11:30;;;;;;;1.58;1.58;;;;;;;;;;5153024;27;20306;-91
2023/07/10 00:13:57;;;;;;;1.88;1.52;;;;;;;;;;5152749;27;20424;-89
2023/07/10 00:16:25;;;;;;;2.08;1.98;;;;;;;;;;5156243;27;20188;-89
2023/07/10 00:18:52;;;;;;;2.33;2.22;;;;;;;;;;5156847;27;20654;-89
2023/07/10 00:21:19;;;;;;;1.65;1.65;;;;;;;;;;5156902;27;20209;-89
2023/07/10 00:23:46;;;;;;;9.25;1.98;;;;;;;;;;5157241;27;20554;-89
2023/07/10 00:26:15;;;;;;;2.22;1.88;;;;;;;;;;5157340;27;20338;-89
2023/07/10 00:28:44;;;;;;;2.20;2.10;;;;;;;;;;5156749;27;20233;-90
2023/07/10 00:31:13;;;;;;;3.10;2.22;;;;;;;;;;5156967;27;20264;-90
2023/07/10 00:33:40;;;;;;;3.30;2.60;;;;;;;;;;5157604;27;20660;-90
2023/07/10 00:36:21;;;;;;;2.30;2.13;;;;;;;;;;5157235;27;20619;-91
2023/07/10 00:38:48;;;;;;;2.17;2.05;;;;;;;;;;5156979;27;20578;-90
2023/07/10 00:41:16;;;;;;;2.35;1.73;;;;;;;;;;5156516;27;20249;-88
2023/07/10 00:43:46;;;;;;;2.25;2.15;;;;;;;;;;5156480;27;20673;-91
2023/07/10 00:46:15;;;;;;;1.60;1.60;;;;;;;;;;5156685;27;20205;-88
2023/07/10 00:48:44;;;;;;;1.92;1.83;;;;;;;;;;5155837;27;20200;-90
2023/07/10 00:51:15;;;;;;;2.20;2.05;;;;;;;;;;5156871;27;20722;-89
2023/07/10 00:53:43;;;;;;;2.80;2.50;;;;;;;;;;5156313;27;20230;-89
2023/07/10 00:56:14;;;;;;;1.98;1.73;;;;;;;;;;5155243;27;20748;-89
2023/07/10 00:58:41;;;;;;;2.78;1.73;;;;;;;;;;5156778;27;20188;-89
2023/07/10 01:01:10;;;;;;;1.70;1.70;;;;;;;;;;5156172;27;20218;-90
2023/07/10 01:03:39;;;;;;;1.77;1.67;;;;;;;;;;5156065;27;20282;-90
2023/07/10 01:06:08;;;;;;;2.60;2.40;;;;;;;;;;5158809;27;20198;-88
2023/07/10 01:08:35;;;;;;;1.85;1.75;;;;;;;;;;5157068;27;20206;-89
2023/07/10 01:11:02;;;;;;;1.92;1.77;;;;;;;;;;5155447;27;20198;-90
2023/07/10 01:13:29;;;;;;;1.83;1.75;;;;;;;;;;5156174;27;20366;-89
2023/07/10 01:15:56;;;;;;;1.80;1.73;;;;;;;;;;5156046;27;20293;-90
2023/07/10 01:18:25;;;;;;;1.92;1.83;;;;;;;;;;5155908;27;20271;-90
2023/07/10 01:21:00;;;;;;;1.73;1.63;;;;;;;;;;5155795;27;20600;-89
2023/07/10 01:23:27;;;;;;;1.75;1.73;;;;;;;;;;5156263;27;20204;-89
2023/07/10 01:25:57;;;;;;;1.60;1.50;;;;;;;;;;5155271;27;20260;-88
2023/07/10 01:28:24;;;;;;;1.55;1.45;;;;;;;;;;5155779;27;20197;-89
2023/07/10 01:30:53;;;;;;;2.53;2.33;;;;;;;;;;5155712;27;20749;-88
2023/07/10 01:33:21;;;;;;;2.30;1.98;;;;;;;;;;5156105;27;20279;-89
2023/07/10 01:35:50;;;;;;;1.75;1.65;;;;;;;;;;5155330;27;20236;-89
2023/07/10 01:38:19;;;;;;;2.70;2.50;;;;;;;;;;5155559;27;20547;-90
2023/07/10 01:40:48;;;;;;;2.20;2.10;;;;;;;;;;5155550;27;20200;-89
2023/07/10 01:43:15;;;;;;;1.98;1.88;;;;;;;;;;5156104;27;20201;-91
2023/07/10 01:45:44;;;;;;;2.22;2.13;;;;;;;;;;5155127;27;20214;-89
2023/07/10 01:48:11;;;;;;;2.43;2.23;;;;;;;;;;5155483;27;20200;-89
2023/07/10 01:50:38;;;;;;;2.30;2.20;;;;;;;;;;5155473;27;20728;-87
2023/07/10 01:53:06;;;;;;;2.23;2.03;;;;;;;;;;5154905;27;20278;-89
2023/07/10 01:55:38;;;;;;;1.98;1.88;;;;;;;;;;5154840;27;20401;-90
2023/07/10 01:58:05;;;;;;;3.77;2.27;;;;;;;;;;5155610;27;20322;-89
2023/07/10 02:00:32;;;;;;;7.10;2.20;;;;;;;;;;5155298;27;20517;-90
2023/07/10 02:02:59;;;;;;;2.33;2.10;;;;;;;;;;5154700;27;20228;-90
2023/07/10 02:05:25;;;;;;;5.53;3.67;;;;;;;;;;5154720;27;20205;-90
2023/07/10 02:07:52;;;;;;;1.77;1.67;;;;;;;;;;5154225;27;20254;-90
2023/07/10 02:10:21;;;;;;;2.60;2.40;;;;;;;;;;5154716;27;20295;-90
2023/07/10 02:12:49;;;;;;;1.77;1.73;;;;;;;;;;5154854;27;20265;-91
2023/07/10 02:15:16;;;;;;;2.00;1.90;;;;;;;;;;5154549;27;20254;-88
2023/07/10 02:17:43;;;;;;;2.63;2.50;;;;;;;;;;5154642;27;20246;-90
2023/07/10 02:20:11;;;;;;;2.03;1.80;;;;;;;;;;5154314;27;20210;-89
2023/07/10 02:22:38;;;;;;;3.37;2.80;;;;;;;;;;5154240;27;20199;-88
2023/07/10 02:25:06;;;;;;;2.30;2.20;;;;;;;;;;5154826;27;20253;-88
2023/07/10 02:27:33;;;;;;;15.43;9.83;;;;;;;;;;5153707;27;20233;-90
2023/07/10 02:30:02;;;;;;;2.70;2.50;;;;;;;;;;5154199;27;20196;-90
2023/07/10 02:32:29;;;;;;;2.17;2.03;;;;;;;;;;5154426;27;20212;-89
2023/07/10 02:34:56;;;;;;;3.47;2.67;;;;;;;;;;5153888;27;20227;-89
2023/07/10 02:37:23;;;;;;;2.20;2.10;;;;;;;;;;5153436;27;20203;-88
2023/07/10 02:39:51;;;;;;;2.20;2.00;;;;;;;;;;5155122;27;20677;-89
2023/07/10 02:42:18;;;;;;;2.53;2.43;;;;;;;;;;5154012;27;20279;-91
2023/07/10 02:44:45;;;;;;;2.93;2.50;;;;;;;;;;5154269;27;20658;-90
2023/07/10 02:47:13;;;;;;;2.40;2.27;;;;;;;;;;5155000;27;20199;-90
2023/07/10 02:49:40;;;;;;;2.60;2.43;;;;;;;;;;5154068;27;20202;-90
2023/07/10 02:52:08;;;;;;;13.27;1.87;;;;;;;;;;5160636;27;20235;-90
2023/07/10 02:54:35;;;;;;;2.43;2.33;;;;;;;;;;5166635;27;20192;-89
2023/07/10 02:57:02;;;;;;;2.80;2.57;;;;;;;;;;5165989;27;20190;-88
2023/07/10 02:59:29;;;;;;;3.03;2.83;;;;;;;;;;5175290;27;20182;-89
2023/07/10 03:01:56;;;;;;;2.27;2.17;;;;;;;;;;5174986;27;20224;-91
2023/07/10 03:04:25;;;;;;;2.63;2.50;;;;;;;;;;5156292;27;20191;-88
2023/07/10 03:06:52;;;;;;;5.70;1.80;;;;;;;;;;5157887;27;20216;-89
2023/07/10 03:09:19;;;;;;;3.27;2.53;;;;;;;;;;5159215;27;20208;-90
2023/07/10 03:11:46;;;;;;;2.83;2.43;;;;;;;;;;5160705;27;20328;-89
2023/07/10 03:14:13;;;;;;;7.70;2.63;;;;;;;;;;5170723;27;20201;-87
2023/07/10 03:16:40;;;;;;;2.50;2.40;;;;;;;;;;5174271;27;20318;-92
2023/07/10 03:19:07;;;;;;;2.63;2.42;;;;;;;;;;5172742;27;20209;-87
2023/07/10 03:21:36;;;;;;;4.68;2.60;;;;;;;;;;5166332;27;20206;-87
2023/07/10 03:24:03;;;;;;;7.68;2.85;;;;;;;;;;5156075;27;20273;-88
2023/07/10 03:26:30;;;;;;;2.50;2.40;;;;;;;;;;5153249;27;20233;-90
2023/07/10 03:29:04;;;;;;;2.92;2.67;;;;;;;;;;5153504;27;20195;-89
2023/07/10 03:31:32;;;;;;;3.17;2.97;;;;;;;;;;5152699;27;20297;-91
2023/07/10 03:33:58;;;;;;;2.45;2.25;;;;;;;;;;5152563;27;20694;-89
2023/07/10 03:36:26;;;;;;;2.20;2.10;;;;;;;;;;5152484;27;20322;-89
2023/07/10 03:38:55;;;;;;;3.90;2.40;;;;;;;;;;5151624;27;20192;-90
2023/07/10 03:41:23;;;;;;;2.40;2.30;;;;;;;;;;5151849;27;20291;-89
2023/07/10 03:43:50;;;;;;;2.78;2.10;;;;;;;;;;5152287;27;20196;-89
2023/07/10 03:46:18;;;;;;;2.50;2.40;;;;;;;;;;5152313;27;20565;-91
2023/07/10 03:48:45;;;;;;;2.80;2.60;;;;;;;;;;5151889;27;20701;-89
2023/07/10 03:51:13;;;;;;;7.78;5.43;;;;;;;;;;5153020;27;20292;-90
2023/07/10 03:53:41;;;;;;;3.03;2.83;;;;;;;;;;5152791;27;20204;-90
2023/07/10 03:56:09;;;;;;;3.35;3.15;;;;;;;;;;5152133;27;20748;-91
2023/07/10 03:58:37;;;;;;;2.75;2.55;;;;;;;;;;5152630;27;20275;-89
2023/07/10 04:01:05;;;;;;;3.30;2.55;;;;;;;;;;5153216;27;20225;-90
2023/07/10 04:03:33;;;;;;;2.17;2.08;;;;;;;;;;5152193;27;20589;-90
2023/07/10 04:06:00;;;;;;;2.28;2.17;;;;;;;;;;5152370;27;20244;-90
2023/07/10 04:08:30;;;;;;;4.43;4.05;;;;;;;;;;5151924;27;20207;-89
2023/07/10 04:10:58;;;;;;;2.88;2.65;;;;;;;;;;5152936;27;20192;-89
2023/07/10 04:13:27;;;;;;;2.42;2.33;;;;;;;;;;5151807;27;20207;-91
2023/07/10 04:15:58;;;;;;;3.78;3.45;;;;;;;;;;5151721;27;20708;-91
2023/07/10 04:18:25;;;;;;;2.28;2.17;;;;;;;;;;5152311;27;20196;-89
2023/07/10 04:20:52;;;;;;;6.28;4.20;;;;;;;;;;5152334;27;20187;-89
2023/07/10 04:23:19;;;;;;;6.22;5.03;;;;;;;;;;5152603;27;20196;-89
2023/07/10 04:25:47;;;;;;;4.85;4.40;;;;;;;;;;5152241;27;20295;-90
2023/07/10 04:28:14;;;;;;;3.70;2.72;;;;;;;;;;5152239;27;20199;-91
2023/07/10 04:30:42;;;;;;;2.67;2.47;;;;;;;;;;5152412;27;20283;-89
2023/07/10 04:33:11;;;;;;;2.58;2.47;;;;;;;;;;5152529;27;20320;-89
2023/07/10 04:35:39;;;;;;;3.35;3.25;;;;;;;;;;5152776;27;20246;-88
2023/07/10 04:38:06;;;;;;;2.65;2.50;;;;;;;;;;5153280;27;20222;-88
2023/07/10 04:40:33;;;;;;;2.80;2.60;;;;;;;;;;5152503;27;20201;-89
2023/07/10 04:43:00;;;;;;;2.45;2.35;;;;;;;;;;5152021;27;20588;-88
2023/07/10 04:45:26;;;;;;;4.88;2.47;;;;;;;;;;5152210;27;20195;-89
2023/07/10 04:47:55;;;;;;;3.63;2.45;;;;;;;;;;5152812;27;20206;-89
2023/07/10 04:50:23;;;;;;;2.70;2.60;;;;;;;;;;5152282;27;20206;-90
2023/07/10 04:52:50;;;;;;;2.60;2.45;;;;;;;;;;5152396;27;20206;-88
2023/07/10 04:55:17;;;;;;;2.78;2.67;;;;;;;;;;5153125;27;20227;-90
2023/07/10 04:57:44;;;;;;;2.78;2.67;;;;;;;;;;5152844;27;20271;-90
2023/07/10 05:00:11;;;;;;;2.53;2.35;;;;;;;;;;5152035;27;20245;-88
2023/07/10 05:02:38;;;;;;;2.17;2.08;;;;;;;;;;5155056;27;20243;-89
2023/07/10 05:05:08;;;;;;;3.88;2.28;;;;;;;;;;5155880;27;20200;-90
2023/07/10 05:07:35;;;;;;;2.67;2.20;;;;;;;;;;5155483;27;20664;-89
2023/07/10 05:10:01;;;;;;;2.17;2.08;;;;;;;;;;5156245;27;20732;-89
2023/07/10 05:12:28;;;;;;;2.05;1.90;;;;;;;;;;5155895;27;20223;-90
2023/07/10 05:14:56;;;;;;;1.92;1.90;;;;;;;;;;5159421;27;20191;-89
2023/07/10 05:17:22;;;;;;;3.30;2.45;;;;;;;;;;5163651;27;20223;-89
2023/07/10 05:19:49;;;;;;;2.17;1.60;;;;;;;;;;5155914;27;20188;-89
2023/07/10 05:22:18;;;;;;;2.65;2.33;;;;;;;;;;5156154;27;20206;-90
2023/07/10 05:24:46;;;;;;;1.80;1.80;;;;;;;;;;5156163;27;20202;-89
2023/07/10 05:27:12;;;;;;;1.67;1.67;;;;;;;;;;5156574;27;20580;-90
2023/07/10 05:29:40;;;;;;;1.63;1.63;;;;;;;;;;5155942;27;20216;-90
2023/07/10 05:32:07;;;;;;;2.05;2.00;;;;;;;;;;5156010;27;20244;-90
2023/07/10 05:34:34;;;;;;;2.03;1.92;;;;;;;;;;5156235;27;20211;-91
2023/07/10 05:37:01;;;;;;;2.83;1.88;;;;;;;;;;5157760;27;20272;-90
2023/07/10 05:39:30;;;;;;;3.40;2.13;;;;;;;;;;5160144;27;20582;-90
2023/07/10 05:41:57;;;;;;;3.05;1.90;;;;;;;;;;5159161;27;20187;-90
2023/07/10 05:44:24;;;;;;;2.15;1.90;;;;;;;;;;5157448;27;20282;-88
2023/07/10 05:46:55;;;;;;;2.13;2.03;;;;;;;;;;5156732;27;20330;-89
2023/07/10 05:49:23;;;;;;;1.75;1.75;;;;;;;;;;5156056;27;20188;-90
2023/07/10 05:51:50;;;;;;;1.92;1.90;;;;;;;;;;5154998;27;20576;-90
2023/07/10 05:54:17;;;;;;;3.38;2.08;;;;;;;;;;5155453;27;20227;-89
2023/07/10 05:56:46;;;;;;;2.17;2.08;;;;;;;;;;5154719;27;20219;-90
2023/07/10 05:59:14;;;;;;;2.42;2.33;;;;;;;;;;5154914;27;20192;-90
2023/07/10 06:01:41;;;;;;;2.22;2.08;;;;;;;;;;5154810;27;20541;-90
2023/07/10 06:04:08;;;;;;;1.70;1.70;;;;;;;;;;5154396;27;20203;-89
2023/07/10 06:06:35;;;;;;;4.05;2.35;;;;;;;;;;5154408;27;20195;-91
2023/07/10 06:09:03;;;;;;;2.17;2.08;;;;;;;;;;5154569;27;20306;-88
2023/07/10 06:11:30;;;;;;;2.30;2.20;;;;;;;;;;5154038;27;20223;-88
2023/07/10 06:13:59;;;;;;;1.77;1.77;;;;;;;;;;5156012;27;20196;-90
2023/07/10 06:16:26;;;;;;;2.10;2.00;;;;;;;;;;5155198;27;20219;-91
2023/07/10 06:18:53;;;;;;;1.98;1.83;;;;;;;;;;5154415;27;20191;-89
2023/07/10 06:21:20;;;;;;;2.25;2.15;;;;;;;;;;5154140;27;20278;-91
2023/07/10 06:23:48;;;;;;;2.20;2.10;;;;;;;;;;5155034;27;20648;-90
2023/07/10 06:26:14;;;;;;;2.22;2.13;;;;;;;;;;5154101;27;20230;-90
2023/07/10 06:28:41;;;;;;;2.42;2.33;;;;;;;;;;5154670;27;20204;-89
2023/07/10 06:31:11;;;;;;;1.90;1.90;;;;;;;;;;5154703;27;20560;-88
2023/07/10 06:33:38;;;;;;;2.15;2.05;;;;;;;;;;5155302;27;20275;-88
2023/07/10 06:36:06;;;;;;;3.38;2.20;;;;;;;;;;5154383;27;20220;-89
2023/07/10 06:38:33;;;;;;;2.60;2.50;;;;;;;;;;5154735;27;20199;-90
2023/07/10 06:41:01;;;;;;;2.25;2.13;;;;;;;;;;5159582;27;20203;-90
2023/07/10 06:43:28;;;;;;;2.78;2.50;;;;;;;;;;5164508;27;20255;-88
2023/07/10 06:45:56;;;;;;;2.17;2.05;;;;;;;;;;5169392;27;20172;-89
2023/07/10 06:48:24;;;;;;;11.15;2.40;;;;;;;;;;5177453;27;20252;-91
2023/07/10 06:50:52;;;;;;;2.15;2.05;;;;;;;;;;5167576;27;20592;-90
2023/07/10 06:53:19;;;;;;;2.30;2.10;;;;;;;;;;5154175;27;20201;-89
2023/07/10 06:55:52;;;;;;;2.50;2.30;;;;;;;;;;5153886;27;20196;-90
2023/07/10 06:58:19;;;;;;;4.20;2.70;;;;;;;;;;5153914;27;20203;-88
2023/07/10 07:00:46;;;;;;;2.42;2.22;;;;;;;;;;5156262;27;20217;-90
2023/07/10 07:03:14;;;;;;;2.08;2.08;;;;;;;;;;5155090;27;20192;-89
2023/07/10 07:05:43;;;;;;;3.00;2.53;;;;;;;;;;5157721;27;20239;-88
2023/07/10 07:08:13;;;;;;;4.38;2.55;;;;;;;;;;5155329;27;20202;-90
2023/07/10 07:10:41;;;;;;;2.67;2.58;;;;;;;;;;5157108;27;20199;-88
2023/07/10 07:13:10;;;;;;;2.72;2.63;;;;;;;;;;5161901;27;20310;-89
2023/07/10 07:15:36;;;;;;;4.15;2.50;;;;;;;;;;5161121;27;20191;-88
2023/07/10 07:18:04;;;;;;;2.90;2.33;;;;;;;;;;5157576;27;20203;-90
2023/07/10 07:20:31;;;;;;;2.90;2.40;;;;;;;;;;5153521;27;20199;-89
2023/07/10 07:23:03;;;;;;;4.82;2.67;;;;;;;;;;5153327;27;20199;-89
2023/07/10 07:25:30;;;;;;;2.60;2.33;;;;;;;;;;5152416;27;20256;-89
2023/07/10 07:27:59;;;;;;;4.32;2.40;;;;;;;;;;5152489;27;20303;-91
2023/07/10 07:30:28;;;;;;;2.97;2.78;;;;;;;;;;5153737;27;20207;-90
2023/07/10 07:32:58;;;;;;;2.70;2.50;;;;;;;;;;5153598;27;20191;-88
2023/07/10 07:35:28;;;;;;;2.10;2.00;;;;;;;;;;5152956;27;20192;-91
2023/07/10 07:37:57;;;;;;;2.10;2.00;;;;;;;;;;5157104;27;20295;-90
2023/07/10 07:40:27;;;;;;;4.05;2.80;;;;;;;;;;5154053;27;20210;-90
2023/07/10 07:42:54;;;;;;;2.58;2.47;;;;;;;;;;5155572;27;20207;-89
2023/07/10 07:45:21;;;;;;;1.98;1.98;;;;;;;;;;5155606;27;20203;-89
2023/07/10 07:47:49;;;;;;;2.67;2.17;;;;;;;;;;5155463;27;20192;-91
2023/07/10 07:50:17;;;;;;;2.45;2.25;;;;;;;;;;5156913;27;20653;-90
2023/07/10 07:52:45;;;;;;;2.00;1.90;;;;;;;;;;5155188;27;20195;-90
2023/07/10 07:55:12;;;;;;;3.40;1.88;;;;;;;;;;5155421;27;20195;-89
2023/07/10 07:57:41;;;;;;;2.20;2.10;;;;;;;;;;5157638;27;20330;-89
2023/07/10 08:00:14;;;;;;;2.55;1.90;;;;;;;;;;5158214;27;20202;-89
2023/07/10 08:02:41;;;;;;;3.00;2.13;;;;;;;;;;5157730;27;20195;-88
2023/07/10 08:05:09;;;;;;;2.13;2.03;;;;;;;;;;5156743;27;20214;-89
2023/07/10 08:07:36;;;;;;;2.20;2.15;;;;;;;;;;5154120;27;20226;-89
2023/07/10 08:10:04;;;;;;;3.05;2.00;;;;;;;;;;5155455;27;20199;-89
2023/07/10 08:12:30;;;;;;;2.00;1.90;;;;;;;;;;5153390;27;20222;-89
2023/07/10 08:15:00;;;;;;;2.35;2.25;;;;;;;;;;5152937;27;20203;-89
2023/07/10 08:17:29;;;;;;;2.58;2.40;;;;;;;;;;5152667;27;20227;-90
2023/07/10 08:19:59;;;;;;;3.45;1.98;;;;;;;;;;5153208;27;20215;-90
2023/07/10 08:22:25;;;;;;;1.98;1.88;;;;;;;;;;5153149;27;20256;-88
2023/07/10 08:24:53;;;;;;;1.75;1.75;;;;;;;;;;5152347;27;20591;-89
2023/07/10 08:27:20;;;;;;;2.00;1.90;;;;;;;;;;5152590;27;20566;-87
2023/07/10 08:29:52;;;;;;;1.80;1.80;;;;;;;;;;5153333;27;20218;-91
2023/07/10 08:32:21;;;;;;;2.30;2.20;;;;;;;;;;5153555;27;20188;-89
2023/07/10 08:34:48;;;;;;;2.45;2.25;;;;;;;;;;5152858;27;20191;-87
2023/07/10 08:37:15;;;;;;;2.22;2.13;;;;;;;;;;5156396;27;20234;-89
2023/07/10 08:39:43;;;;;;;2.42;2.33;;;;;;;;;;5157155;27;20208;-89
2023/07/10 08:42:19;;;;;;;5.65;2.20;;;;;;;;;;5157842;27;20191;-89
2023/07/10 08:44:48;;;;;;;2.50;2.33;;;;;;;;;;5156934;27;20265;-88
2023/07/10 08:47:16;;;;;;;1.42;1.42;;;;;;;;;;5156842;27;20634;-90
2023/07/10 08:49:53;;;;;;;2.22;2.13;;;;;;;;;;5157773;27;20282;-90
2023/07/10 08:52:29;;;;;;;2.13;2.03;;;;;;;;;;5157545;27;20215;-90
2023/07/10 08:54:56;;;;;;;2.45;2.35;;;;;;;;;;5157160;27;20203;-89
2023/07/10 08:57:28;;;;;;;2.22;2.13;;;;;;;;;;5157321;27;20327;-88
2023/07/10 09:00:11;;;;;;;2.08;2.00;;;;;;;;;;5157030;27;20256;-89
2023/07/10 09:02:39;;;;;;;2.50;2.38;;;;;;;;;;5156974;27;20267;-88
2023/07/10 09:05:09;;;;;;;2.30;2.20;;;;;;;;;;5156357;27;20299;-89
2023/07/10 09:07:39;;;;;;;2.13;2.08;;;;;;;;;;5156734;27;20199;-88
2023/07/10 09:10:08;;;;;;;2.10;2.00;;;;;;;;;;5156669;27;20604;-89
2023/07/10 09:12:38;;;;;;;1.98;1.92;;;;;;;;;;5156572;27;20327;-89
2023/07/10 09:15:07;;;;;;;3.17;2.40;;;;;;;;;;5156315;27;20196;-88
2023/07/10 09:17:38;;;;;;;2.40;2.30;;;;;;;;;;5156121;27;20231;-89
2023/07/10 09:20:07;;;;;;;2.10;2.00;;;;;;;;;;5156212;27;20225;-90
2023/07/10 09:22:37;;;;;;;2.38;2.28;;;;;;;;;;5156853;27;20195;-91
2023/07/10 09:25:11;;;;;;;2.22;2.13;;;;;;;;;;5155441;27;20195;-88
2023/07/10 09:27:38;;;;;;;1.98;1.98;;;;;;;;;;5155865;27;20226;-89
2023/07/10 09:30:16;;;;;;;2.33;2.22;;;;;;;;;;5156701;27;20274;-89
2023/07/10 09:32:43;;;;;;;2.10;2.00;;;;;;;;;;5155336;27;20187;-89
2023/07/10 09:35:10;;;;;;;2.50;2.40;;;;;;;;;;5155226;27;20271;-88
2023/07/10 09:37:42;;;;;;;1.80;1.70;;;;;;;;;;5155243;27;20239;-88
2023/07/10 09:40:30;;;;;;;2.80;2.60;;;;;;;;;;5155299;27;20283;-89
2023/07/10 09:43:02;;;;;;;2.10;2.03;;;;;;;;;;5157096;27;20275;-89
2023/07/10 09:45:32;;;;;;;3.20;2.42;;;;;;;;;;5155151;27;20203;-89
2023/07/10 09:48:00;;;;;;;2.30;2.20;;;;;;;;;;5154128;27;20200;-89
2023/07/10 09:50:29;;;;;;;2.40;2.30;;;;;;;;;;5154323;27;20203;-89
2023/07/10 09:53:00;;;;;;;1.95;1.90;;;;;;;;;;5154921;27;20198;-89
2023/07/10 09:55:27;;;;;;;2.75;2.55;;;;;;;;;;5155016;27;20195;-88
2023/07/10 09:57:57;;;;;;;2.13;2.05;;;;;;;;;;5154863;27;20243;-88
2023/07/10 10:00:25;;;;;;;2.03;1.92;;;;;;;;;;5154981;27;20256;-90
2023/07/10 10:02:55;;;;;;;2.60;2.08;;;;;;;;;;5154366;27;20200;-90
2023/07/10 10:05:23;;;;;;;2.30;2.20;;;;;;;;;;5154760;27;20630;-89
2023/07/10 10:07:54;;;;;;;2.25;2.15;;;;;;;;;;5154667;27;20207;-88
2023/07/10 10:10:27;;;;;;;1.85;1.75;;;;;;;;;;5154981;27;20196;-89
2023/07/10 10:12:58;;;;;;;2.13;2.03;;;;;;;;;;5160585;27;20262;-89
2023/07/10 10:15:31;;;;;;;1.90;1.85;;;;;;;;;;5155077;27;20204;-89
2023/07/10 10:18:01;;;;;;;1.90;1.80;;;;;;;;;;5154502;27;20654;-88
2023/07/10 10:20:30;;;;;;;2.30;2.20;;;;;;;;;;5155005;27;20230;-89
2023/07/10 10:22:57;;;;;;;2.30;1.80;;;;;;;;;;5155127;27;20568;-88
2023/07/10 10:25:33;;;;;;;2.10;2.00;;;;;;;;;;5161331;27;20203;-89
2023/07/10 10:28:15;;;;;;;2.25;2.15;;;;;;;;;;5162315;27;20254;-89
2023/07/10 10:30:44;;;;;;;2.50;1.92;;;;;;;;;;5173269;27;20188;-89
2023/07/10 10:33:18;;;;;;;1.70;1.70;;;;;;;;;;5177077;27;20272;-90
2023/07/10 10:36:00;;;;;;;1.92;1.83;;;;;;;;;;5157128;27;20195;-90
2023/07/10 10:38:36;;;;;;;2.35;2.15;;;;;;;;;;5154664;27;20280;-89
2023/07/10 10:41:12;;;;;;;2.67;2.42;;;;;;;;;;5153672;27;20275;-89
2023/07/10 10:43:43;;;;;;;2.05;1.88;;;;;;;;;;5153693;27;20252;-90
2023/07/10 10:46:14;;;;;;;2.25;2.15;;;;;;;;;;5153739;27;20196;-89
2023/07/10 10:48:45;;;;;;;2.03;1.92;;;;;;;;;;5153179;27;20621;-89
2023/07/10 10:51:17;;;;;;;2.00;1.98;;;;;;;;;;5153058;27;20188;-89
2023/07/10 10:53:50;;;;;;;2.40;2.30;;;;;;;;;;5153442;27;20231;-90
2023/07/10 10:56:21;;;;;;;2.17;2.08;;;;;;;;;;5153662;27;20200;-87
2023/07/10 10:58:56;;;;;;;2.08;1.98;;;;;;;;;;5152344;27;20700;-90
2023/07/10 11:01:34;;;;;;;2.20;2.05;;;;;;;;;;5153502;27;20547;-89
2023/07/10 11:04:04;;;;;;;3.22;1.65;;;;;;;;;;5153717;27;20569;-91
2023/07/10 11:06:39;;;;;;;2.00;1.90;;;;;;;;;;5153312;27;20245;-89
2023/07/10 11:09:10;;;;;;;2.47;1.95;;;;;;;;;;5153607;27;20211;-89
2023/07/10 11:11:42;;;;;;;1.65;1.65;;;;;;;;;;5155733;27;20239;-87
2023/07/10 11:14:09;;;;;;;2.30;2.20;;;;;;;;;;5165430;27;20196;-88
2023/07/10 11:16:36;;;;;;;5.57;2.20;;;;;;;;;;5162461;27;20214;-90
2023/07/10 11:19:08;;;;;;;2.35;2.13;;;;;;;;;;5173596;27;20204;-90
2023/07/10 11:21:38;;;;;;;3.10;2.50;;;;;;;;;;5175961;27;20251;-87
2023/07/10 11:24:34;;;;;;;1.83;1.73;;;;;;;;;;5164203;27;20216;-90
2023/07/10 11:27:11;;;;;;;1.95;1.85;;;;;;;;;;5155366;27;20223;-89
2023/07/10 11:29:41;;;;;;;2.03;1.83;;;;;;;;;;5155120;27;20232;-90
2023/07/10 11:32:15;;;;;;;1.80;1.80;;;;;;;;;;5154373;27;20198;-90
2023/07/10 11:34:49;;;;;;;2.40;2.20;;;;;;;;;;5156433;27;20199;-90
2023/07/10 11:37:35;;;;;;;2.22;2.13;;;;;;;;;;5157828;27;20199;-90
2023/07/10 11:40:17;;;;;;;6.13;3.20;;;;;;;;;;5155556;27;20195;-89
2023/07/10 11:42:49;;;;;;;2.20;2.10;;;;;;;;;;5155276;27;20187;-88
2023/07/10 11:45:16;;;;;;;2.38;2.28;;;;;;;;;;5154244;27;20207;-89
2023/07/10 11:47:45;;;;;;;3.15;2.15;;;;;;;;;;5153138;27;20202;-90
2023/07/10 11:50:18;;;;;;;3.60;2.50;;;;;;;;;;5153123;27;20775;-89
2023/07/10 11:52:45;;;;;;;2.40;2.30;;;;;;;;;;5154580;27;20189;-90
2023/07/10 11:55:13;;;;;;;2.08;1.98;;;;;;;;;;5154099;27;20196;-89
2023/07/10 11:57:41;;;;;;;14.52;5.43;;;;;;;;;;5154059;27;20231;-88
2023/07/10 12:00:26;;;;;;;11.85;7.80;;;;;;;;;;5153559;27;20195;-90
2023/07/10 12:02:54;;;;;;;2.55;2.33;;;;;;;;;;5153586;27;20196;-90
2023/07/10 12:05:22;;;;;;;6.32;3.38;;;;;;;;;;5154390;27;20208;-89
2023/07/10 12:08:00;;;;;;;2.75;2.55;;;;;;;;;;5151888;27;20332;-87
2023/07/10 12:10:28;;;;;;;2.03;1.92;;;;;;;;;;5156523;27;20195;-87
2023/07/10 12:12:55;;;;;;;4.18;2.42;;;;;;;;;;5159177;27;20220;-88
2023/07/10 12:15:24;;;;;;;2.55;2.45;;;;;;;;;;5159182;27;20200;-90
2023/07/10 12:17:53;;;;;;;2.20;2.10;;;;;;;;;;5160082;27;20234;-88
2023/07/10 12:20:30;;;;;;;6.53;4.00;;;;;;;;;;5159353;27;20196;-90
2023/07/10 12:23:00;;;;;;;2.08;2.00;;;;;;;;;;5159881;27;20274;-89
2023/07/10 12:25:30;;;;;;;2.40;2.20;;;;;;;;;;5158793;27;20196;-88
2023/07/10 12:28:00;;;;;;;7.50;5.78;;;;;;;;;;5159014;27;20680;-89
2023/07/10 12:30:29;;;;;;;2.75;2.25;;;;;;;;;;5159231;27;20740;-89
2023/07/10 12:33:01;;;;;;;4.90;4.50;;;;;;;;;;5158769;27;20206;-88
2023/07/10 12:35:31;;;;;;;2.25;2.15;;;;;;;;;;5158858;27;20199;-89
2023/07/10 12:37:59;;;;;;;2.70;2.50;;;;;;;;;;5158910;27;20224;-89
2023/07/10 12:40:27;;;;;;;2.60;2.40;;;;;;;;;;5159009;27;20199;-90
2023/07/10 12:42:55;;;;;;;2.40;2.30;;;;;;;;;;5160568;27;20199;-88
2023/07/10 12:45:29;;;;;;;2.30;2.20;;;;;;;;;;5159305;27;20202;-89
2023/07/10 12:47:58;;;;;;;2.47;2.38;;;;;;;;;;5158657;27;20196;-89
2023/07/10 12:50:33;;;;;;;6.03;5.43;;;;;;;;;;5158554;27;20199;-88
2023/07/10 12:53:04;;;;;;;2.25;2.15;;;;;;;;;;5159164;27;20219;-89
2023/07/10 12:55:32;;;;;;;2.58;2.47;;;;;;;;;;5158581;27;20653;-89
2023/07/10 12:58:00;;;;;;;2.00;1.90;;;;;;;;;;5158168;27;20262;-89
2023/07/10 13:00:42;;;;;;;2.80;2.60;;;;;;;;;;5157877;27;20684;-89
2023/07/10 13:03:19;;;;;;;2.53;2.42;;;;;;;;;;5158239;27;20267;-89
2023/07/10 13:05:51;;;;;;;2.60;2.50;;;;;;;;;;5158563;27;20252;-90
2023/07/10 13:08:18;;;;;;;2.15;2.05;;;;;;;;;;5158894;27;20680;-89
2023/07/10 13:10:46;;;;;;;2.83;2.38;;;;;;;;;;5161906;27;20549;-90
2023/07/10 13:13:15;;;;;;;2.72;2.53;;;;;;;;;;5158955;27;20220;-89
2023/07/10 13:15:43;;;;;;;2.25;2.15;;;;;;;;;;5158292;27;20318;-89
2023/07/10 13:18:17;;;;;;;2.80;2.60;;;;;;;;;;5158385;27;20227;-91
2023/07/10 13:20:44;;;;;;;2.67;2.55;;;;;;;;;;5158203;27;20200;-90
2023/07/10 13:23:12;;;;;;;2.35;2.25;;;;;;;;;;5154585;27;20638;-89
2023/07/10 13:25:39;;;;;;;2.33;2.22;;;;;;;;;;5154903;27;20193;-89
2023/07/10 13:28:17;;;;;;;2.80;2.70;;;;;;;;;;5156404;27;20227;-88
2023/07/10 13:30:45;;;;;;;2.40;2.30;;;;;;;;;;5160979;27;20655;-89
2023/07/10 13:33:15;;;;;;;2.80;2.70;;;;;;;;;;5155427;27;20218;-89
2023/07/10 13:35:43;;;;;;;2.60;2.40;;;;;;;;;;5155004;27;20620;-89
2023/07/10 13:38:11;;;;;;;2.90;2.78;;;;;;;;;;5155491;27;20330;-90
2023/07/10 13:40:41;;;;;;;4.15;2.40;;;;;;;;;;5155061;27;20228;-88
2023/07/10 13:43:15;;;;;;;2.53;2.42;;;;;;;;;;5155285;27;20199;-90
2023/07/10 13:45:43;;;;;;;3.22;2.58;;;;;;;;;;5155230;27;20568;-89
2023/07/10 13:48:16;;;;;;;2.28;2.17;;;;;;;;;;5155659;27;20196;-88
2023/07/10 13:50:45;;;;;;;2.55;2.45;;;;;;;;;;5155715;27;20240;-89
2023/07/10 13:53:13;;;;;;;2.50;2.40;;;;;;;;;;5155178;27;20283;-88
2023/07/10 13:55:40;;;;;;;2.40;2.30;;;;;;;;;;5155417;27;20626;-90
2023/07/10 13:58:16;;;;;;;3.08;2.88;;;;;;;;;;5154386;27;20690;-89
2023/07/10 14:00:42;;;;;;;3.00;2.80;;;;;;;;;;5154264;27;20268;-88
2023/07/10 14:03:10;;;;;;;3.20;3.08;;;;;;;;;;5156540;27;20223;-90
2023/07/10 14:05:43;;;;;;;2.55;2.45;;;;;;;;;;5161862;27;20246;-88
2023/07/10 14:08:27;;;;;;;2.45;2.35;;;;;;;;;;5165087;27;20223;-89
2023/07/10 14:10:55;;;;;;;3.22;2.90;;;;;;;;;;5176833;27;20179;-89
2023/07/10 14:13:22;;;;;;;4.15;2.80;;;;;;;;;;5177097;27;20200;-90
2023/07/10 14:15:52;;;;;;;3.13;3.03;;;;;;;;;;5155965;27;20222;-89
2023/07/10 14:18:22;;;;;;;3.63;3.28;;;;;;;;;;5155442;27;20229;-89
2023/07/10 14:20:50;;;;;;;2.85;2.75;;;;;;;;;;5154778;27;20203;-89
2023/07/10 14:23:20;;;;;;;3.00;2.80;;;;;;;;;;5154125;27;20188;-88
2023/07/10 14:25:48;;;;;;;3.42;3.22;;;;;;;;;;5153977;27;20196;-89
2023/07/10 14:28:17;;;;;;;6.13;3.30;;;;;;;;;;5154793;27;20197;-89
2023/07/10 14:30:44;;;;;;;3.53;3.33;;;;;;;;;;5154749;27;20630;-89
2023/07/10 14:33:12;;;;;;;3.25;3.05;;;;;;;;;;5156392;27;20208;-90
2023/07/10 14:35:40;;;;;;;3.03;2.83;;;;;;;;;;5157958;27;20196;-89
2023/07/10 14:38:24;;;;;;;3.38;3.03;;;;;;;;;;5156949;27;20192;-91
2023/07/10 14:40:52;;;;;;;3.08;2.88;;;;;;;;;;5157065;27;20251;-89
2023/07/10 14:43:19;;;;;;;2.88;2.78;;;;;;;;;;5154859;27;20551;-90
2023/07/10 14:45:47;;;;;;;3.08;2.95;;;;;;;;;;5155664;27;20196;-89
2023/07/10 14:48:14;;;;;;;2.53;2.42;;;;;;;;;;5155308;27;20206;-89
2023/07/10 14:50:42;;;;;;;2.90;2.80;;;;;;;;;;5156692;27;20192;-90
2023/07/10 14:53:21;;;;;;;3.50;2.78;;;;;;;;;;5154663;27;20203;-90
2023/07/10 14:55:49;;;;;;;2.60;2.40;;;;;;;;;;5157143;27;20196;-89